sensor_id;sensor_type;location;lat;lon;timestamp;temperature;humidity
9497;DHT22;4786;51.270;4.456;2023-08-08T00:01:44;15.80;99.90
9497;DHT22;4786;51.270;4.456;2023-08-08T00:04:10;15.80;99.90
9497;DHT22;4786;51.270;4.456;2023-08-08T00:06:37;15.80;99.90
9497;DHT22;4786;51.270;4.456;2023-08-08T00:09:03;15.80;99.90
9497;DHT22;4786;51.270;4.456;2023-08-08T00:11:30;15.80;99.90
9497;DHT22;4786;51.270;4.456;2023-08-08T00:13:56;15.70;99.90
9497;DHT22;4786;51.270;4.456;2023-08-08T00:16:22;15.70;99.90
9497;DHT22;4786;51.270;4.456;2023-08-08T00:18:48;15.70;99.90
9497;DHT22;4786;51.270;4.456;2023-08-08T00:21:21;15.70;99.90
9497;DHT22;4786;51.270;4.456;2023-08-08T00:23:47;15.70;99.90
9497;DHT22;4786;51.270;4.456;2023-08-08T00:26:13;15.60;99.90
9497;DHT22;4786;51.270;4.456;2023-08-08T00:28:39;15.60;99.90
9497;DHT22;4786;51.270;4.456;2023-08-08T00:31:05;15.60;99.90
9497;DHT22;4786;51.270;4.456;2023-08-08T00:33:31;15.60;99.90
9497;DHT22;4786;51.270;4.456;2023-08-08T00:35:56;15.60;99.90
9497;DHT22;4786;51.270;4.456;2023-08-08T00:38:22;15.60;99.90
9497;DHT22;4786;51.270;4.456;2023-08-08T00:40:48;15.60;99.90
9497;DHT22;4786;51.270;4.456;2023-08-08T00:43:14;15.60;99.90
9497;DHT22;4786;51.270;4.456;2023-08-08T00:45:42;15.50;99.90
9497;DHT22;4786;51.270;4.456;2023-08-08T00:48:08;15.50;99.90
9497;DHT22;4786;51.270;4.456;2023-08-08T00:50:35;15.50;99.90
9497;DHT22;4786;51.270;4.456;2023-08-08T00:53:02;15.60;99.90
9497;DHT22;4786;51.270;4.456;2023-08-08T00:55:29;15.60;99.90
9497;DHT22;4786;51.270;4.456;2023-08-08T00:57:55;15.60;99.90
9497;DHT22;4786;51.270;4.456;2023-08-08T01:00:21;15.60;99.90
9497;DHT22;4786;51.270;4.456;2023-08-08T01:02:47;15.60;99.90
9497;DHT22;4786;51.270;4.456;2023-08-08T01:05:13;15.60;99.90
9497;DHT22;4786;51.270;4.456;2023-08-08T01:07:59;15.60;99.90
9497;DHT22;4786;51.270;4.456;2023-08-08T01:10:32;15.60;99.90
9497;DHT22;4786;51.270;4.456;2023-08-08T01:13:02;15.50;99.90
9497;DHT22;4786;51.270;4.456;2023-08-08T01:15:29;15.50;99.90
9497;DHT22;4786;51.270;4.456;2023-08-08T01:18:04;15.50;99.90
9497;DHT22;4786;51.270;4.456;2023-08-08T01:20:32;15.40;99.90
9497;DHT22;4786;51.270;4.456;2023-08-08T01:23:23;15.40;99.90
9497;DHT22;4786;51.270;4.456;2023-08-08T01:25:50;15.40;99.90
9497;DHT22;4786;51.270;4.456;2023-08-08T01:28:20;15.40;99.90
9497;DHT22;4786;51.270;4.456;2023-08-08T01:30:47;15.40;99.90
9497;DHT22;4786;51.270;4.456;2023-08-08T01:33:14;15.40;99.90
9497;DHT22;4786;51.270;4.456;2023-08-08T01:35:44;15.40;99.90
9497;DHT22;4786;51.270;4.456;2023-08-08T01:38:17;15.40;99.90
9497;DHT22;4786;51.270;4.456;2023-08-08T01:40:45;15.50;99.90
9497;DHT22;4786;51.270;4.456;2023-08-08T01:43:12;15.50;99.90
9497;DHT22;4786;51.270;4.456;2023-08-08T01:45:39;15.50;99.90
9497;DHT22;4786;51.270;4.456;2023-08-08T01:48:10;15.50;99.90
9497;DHT22;4786;51.270;4.456;2023-08-08T01:50:36;15.60;99.90
9497;DHT22;4786;51.270;4.456;2023-08-08T01:53:03;15.40;99.90
9497;DHT22;4786;51.270;4.456;2023-08-08T01:55:30;15.40;99.90
9497;DHT22;4786;51.270;4.456;2023-08-08T01:57:56;15.40;99.90
9497;DHT22;4786;51.270;4.456;2023-08-08T02:00:22;15.40;99.90
9497;DHT22;4786;51.270;4.456;2023-08-08T02:02:47;15.40;99.90
9497;DHT22;4786;51.270;4.456;2023-08-08T02:05:13;15.40;99.90
9497;DHT22;4786;51.270;4.456;2023-08-08T02:07:39;15.40;99.90
9497;DHT22;4786;51.270;4.456;2023-08-08T02:10:05;15.30;99.90
9497;DHT22;4786;51.270;4.456;2023-08-08T02:12:31;15.40;99.90
9497;DHT22;4786;51.270;4.456;2023-08-08T02:14:57;15.70;99.90
9497;DHT22;4786;51.270;4.456;2023-08-08T02:17:24;15.40;99.90
9497;DHT22;4786;51.270;4.456;2023-08-08T02:19:50;15.30;99.90
9497;DHT22;4786;51.270;4.456;2023-08-08T02:22:16;15.30;99.90
9497;DHT22;4786;51.270;4.456;2023-08-08T02:24:42;15.30;99.90
9497;DHT22;4786;51.270;4.456;2023-08-08T02:27:08;15.20;99.90
9497;DHT22;4786;51.270;4.456;2023-08-08T02:29:34;15.20;99.90
9497;DHT22;4786;51.270;4.456;2023-08-08T02:32:00;15.20;99.90
9497;DHT22;4786;51.270;4.456;2023-08-08T02:34:26;15.20;99.90
9497;DHT22;4786;51.270;4.456;2023-08-08T02:36:52;15.20;99.90
9497;DHT22;4786;51.270;4.456;2023-08-08T02:39:18;15.20;99.90
9497;DHT22;4786;51.270;4.456;2023-08-08T02:41:44;15.20;99.90
9497;DHT22;4786;51.270;4.456;2023-08-08T02:44:10;15.20;99.90
9497;DHT22;4786;51.270;4.456;2023-08-08T02:46:36;15.20;99.90
9497;DHT22;4786;51.270;4.456;2023-08-08T02:49:04;15.10;99.90
9497;DHT22;4786;51.270;4.456;2023-08-08T02:51:30;15.10;99.90
9497;DHT22;4786;51.270;4.456;2023-08-08T02:53:56;15.10;99.90
9497;DHT22;4786;51.270;4.456;2023-08-08T02:56:22;15.10;99.90
9497;DHT22;4786;51.270;4.456;2023-08-08T02:58:48;15.10;99.90
9497;DHT22;4786;51.270;4.456;2023-08-08T03:01:14;15.10;99.90
9497;DHT22;4786;51.270;4.456;2023-08-08T03:03:41;15.10;99.90
9497;DHT22;4786;51.270;4.456;2023-08-08T03:06:07;15.00;99.90
9497;DHT22;4786;51.270;4.456;2023-08-08T03:08:33;15.00;99.90
9497;DHT22;4786;51.270;4.456;2023-08-08T03:10:59;15.10;99.90
9497;DHT22;4786;51.270;4.456;2023-08-08T03:13:25;15.00;99.90
9497;DHT22;4786;51.270;4.456;2023-08-08T03:15:51;15.00;99.90
9497;DHT22;4786;51.270;4.456;2023-08-08T03:18:16;15.00;99.90
9497;DHT22;4786;51.270;4.456;2023-08-08T03:20:43;15.00;99.90
9497;DHT22;4786;51.270;4.456;2023-08-08T03:23:08;15.00;99.90
9497;DHT22;4786;51.270;4.456;2023-08-08T03:25:34;15.00;99.90
9497;DHT22;4786;51.270;4.456;2023-08-08T03:28:00;15.00;99.90
9497;DHT22;4786;51.270;4.456;2023-08-08T03:30:26;15.00;99.90
9497;DHT22;4786;51.270;4.456;2023-08-08T03:32:52;14.90;99.90
9497;DHT22;4786;51.270;4.456;2023-08-08T03:35:18;15.00;99.90
9497;DHT22;4786;51.270;4.456;2023-08-08T03:37:44;15.00;99.90
9497;DHT22;4786;51.270;4.456;2023-08-08T03:40:10;15.00;99.90
9497;DHT22;4786;51.270;4.456;2023-08-08T03:42:37;15.00;99.90
9497;DHT22;4786;51.270;4.456;2023-08-08T03:45:03;15.00;99.90
9497;DHT22;4786;51.270;4.456;2023-08-08T03:47:29;14.90;99.90
9497;DHT22;4786;51.270;4.456;2023-08-08T03:49:55;14.90;99.90
9497;DHT22;4786;51.270;4.456;2023-08-08T03:52:23;14.90;99.90
9497;DHT22;4786;51.270;4.456;2023-08-08T03:54:49;14.90;99.90
9497;DHT22;4786;51.270;4.456;2023-08-08T03:57:15;14.90;99.90
9497;DHT22;4786;51.270;4.456;2023-08-08T03:59:42;14.90;99.90
9497;DHT22;4786;51.270;4.456;2023-08-08T04:02:08;14.90;99.90
9497;DHT22;4786;51.270;4.456;2023-08-08T04:04:34;14.90;99.90
9497;DHT22;4786;51.270;4.456;2023-08-08T04:06:59;14.90;99.90
9497;DHT22;4786;51.270;4.456;2023-08-08T04:09:25;14.90;99.90
9497;DHT22;4786;51.270;4.456;2023-08-08T04:11:51;14.90;99.90
9497;DHT22;4786;51.270;4.456;2023-08-08T04:14:17;14.90;99.90
9497;DHT22;4786;51.270;4.456;2023-08-08T04:16:43;15.00;99.90
9497;DHT22;4786;51.270;4.456;2023-08-08T04:19:09;15.00;99.90
9497;DHT22;4786;51.270;4.456;2023-08-08T04:21:35;15.10;99.90
9497;DHT22;4786;51.270;4.456;2023-08-08T04:24:01;15.10;99.90
9497;DHT22;4786;51.270;4.456;2023-08-08T04:26:27;15.10;99.90
9497;DHT22;4786;51.270;4.456;2023-08-08T04:28:53;15.20;99.90
9497;DHT22;4786;51.270;4.456;2023-08-08T04:31:18;15.20;99.90
9497;DHT22;4786;51.270;4.456;2023-08-08T04:33:45;15.20;99.90
9497;DHT22;4786;51.270;4.456;2023-08-08T04:36:11;15.30;99.90
9497;DHT22;4786;51.270;4.456;2023-08-08T04:38:36;15.30;99.90
9497;DHT22;4786;51.270;4.456;2023-08-08T04:41:03;15.30;99.90
9497;DHT22;4786;51.270;4.456;2023-08-08T04:43:28;15.30;99.90
9497;DHT22;4786;51.270;4.456;2023-08-08T04:45:55;15.30;99.90
9497;DHT22;4786;51.270;4.456;2023-08-08T04:48:21;15.40;99.90
9497;DHT22;4786;51.270;4.456;2023-08-08T04:50:47;15.30;99.90
9497;DHT22;4786;51.270;4.456;2023-08-08T04:53:13;15.40;99.90
9497;DHT22;4786;51.270;4.456;2023-08-08T04:55:39;15.40;99.90
9497;DHT22;4786;51.270;4.456;2023-08-08T04:58:05;15.40;99.90
9497;DHT22;4786;51.270;4.456;2023-08-08T05:00:31;15.50;99.90
9497;DHT22;4786;51.270;4.456;2023-08-08T05:02:57;15.50;99.90
9497;DHT22;4786;51.270;4.456;2023-08-08T05:05:23;15.50;99.90
9497;DHT22;4786;51.270;4.456;2023-08-08T05:07:48;15.60;99.90
9497;DHT22;4786;51.270;4.456;2023-08-08T05:10:14;15.60;99.90
9497;DHT22;4786;51.270;4.456;2023-08-08T05:12:41;15.70;99.90
9497;DHT22;4786;51.270;4.456;2023-08-08T05:15:08;15.70;99.90
9497;DHT22;4786;51.270;4.456;2023-08-08T05:17:38;15.90;99.90
9497;DHT22;4786;51.270;4.456;2023-08-08T05:20:04;15.90;99.90
9497;DHT22;4786;51.270;4.456;2023-08-08T05:22:30;16.00;99.90
9497;DHT22;4786;51.270;4.456;2023-08-08T05:24:57;16.00;99.90
9497;DHT22;4786;51.270;4.456;2023-08-08T05:27:22;16.00;99.90
9497;DHT22;4786;51.270;4.456;2023-08-08T05:29:49;16.10;99.90
9497;DHT22;4786;51.270;4.456;2023-08-08T05:32:14;16.20;99.90
9497;DHT22;4786;51.270;4.456;2023-08-08T05:34:40;16.20;99.90
9497;DHT22;4786;51.270;4.456;2023-08-08T05:37:07;16.30;99.90
9497;DHT22;4786;51.270;4.456;2023-08-08T05:39:33;16.40;99.90
9497;DHT22;4786;51.270;4.456;2023-08-08T05:41:59;16.50;99.90
9497;DHT22;4786;51.270;4.456;2023-08-08T05:44:24;16.50;99.90
9497;DHT22;4786;51.270;4.456;2023-08-08T05:46:50;16.50;99.90
9497;DHT22;4786;51.270;4.456;2023-08-08T05:49:16;16.60;99.90
9497;DHT22;4786;51.270;4.456;2023-08-08T05:51:41;16.90;99.90
9497;DHT22;4786;51.270;4.456;2023-08-08T05:54:08;17.60;99.90
9497;DHT22;4786;51.270;4.456;2023-08-08T05:56:37;18.60;99.90
9497;DHT22;4786;51.270;4.456;2023-08-08T05:59:03;19.80;99.90
9497;DHT22;4786;51.270;4.456;2023-08-08T06:01:30;21.10;99.90
9497;DHT22;4786;51.270;4.456;2023-08-08T06:03:56;22.00;99.90
9497;DHT22;4786;51.270;4.456;2023-08-08T06:06:23;22.70;99.90
9497;DHT22;4786;51.270;4.456;2023-08-08T06:08:49;23.30;99.90
9497;DHT22;4786;51.270;4.456;2023-08-08T06:11:15;23.90;99.90
9497;DHT22;4786;51.270;4.456;2023-08-08T06:13:40;24.40;99.90
9497;DHT22;4786;51.270;4.456;2023-08-08T06:16:06;24.80;99.90
9497;DHT22;4786;51.270;4.456;2023-08-08T06:18:33;25.10;99.90
9497;DHT22;4786;51.270;4.456;2023-08-08T06:20:59;25.40;99.90
9497;DHT22;4786;51.270;4.456;2023-08-08T06:23:25;25.50;99.90
9497;DHT22;4786;51.270;4.456;2023-08-08T06:25:50;25.30;99.90
9497;DHT22;4786;51.270;4.456;2023-08-08T06:28:16;24.60;99.90
9497;DHT22;4786;51.270;4.456;2023-08-08T06:30:42;23.80;99.90
9497;DHT22;4786;51.270;4.456;2023-08-08T06:33:08;22.60;99.90
9497;DHT22;4786;51.270;4.456;2023-08-08T06:35:34;21.80;99.90
9497;DHT22;4786;51.270;4.456;2023-08-08T06:38:00;21.30;99.90
9497;DHT22;4786;51.270;4.456;2023-08-08T06:40:26;21.20;99.90
9497;DHT22;4786;51.270;4.456;2023-08-08T06:42:52;20.80;99.90
9497;DHT22;4786;51.270;4.456;2023-08-08T06:45:18;20.80;99.90
9497;DHT22;4786;51.270;4.456;2023-08-08T06:47:45;20.70;99.90
9497;DHT22;4786;51.270;4.456;2023-08-08T06:50:10;20.60;99.90
9497;DHT22;4786;51.270;4.456;2023-08-08T06:52:37;20.50;99.90
9497;DHT22;4786;51.270;4.456;2023-08-08T06:55:03;20.10;99.90
9497;DHT22;4786;51.270;4.456;2023-08-08T06:57:33;20.00;99.90
9497;DHT22;4786;51.270;4.456;2023-08-08T07:00:00;19.80;99.90
9497;DHT22;4786;51.270;4.456;2023-08-08T07:02:26;19.70;99.90
9497;DHT22;4786;51.270;4.456;2023-08-08T07:04:52;19.50;99.90
9497;DHT22;4786;51.270;4.456;2023-08-08T07:07:18;19.40;99.90
9497;DHT22;4786;51.270;4.456;2023-08-08T07:09:44;19.40;99.90
9497;DHT22;4786;51.270;4.456;2023-08-08T07:12:10;19.50;99.90
9497;DHT22;4786;51.270;4.456;2023-08-08T07:14:36;19.60;99.90
9497;DHT22;4786;51.270;4.456;2023-08-08T07:17:02;19.50;99.90
9497;DHT22;4786;51.270;4.456;2023-08-08T07:19:29;19.60;99.90
9497;DHT22;4786;51.270;4.456;2023-08-08T07:21:55;19.50;99.90
9497;DHT22;4786;51.270;4.456;2023-08-08T07:24:20;19.60;99.90
9497;DHT22;4786;51.270;4.456;2023-08-08T07:26:47;19.50;99.90
9497;DHT22;4786;51.270;4.456;2023-08-08T07:29:13;19.30;99.90
9497;DHT22;4786;51.270;4.456;2023-08-08T07:31:39;19.40;99.90
9497;DHT22;4786;51.270;4.456;2023-08-08T07:34:05;19.20;99.90
9497;DHT22;4786;51.270;4.456;2023-08-08T07:36:31;19.10;99.90
9497;DHT22;4786;51.270;4.456;2023-08-08T07:38:57;19.10;99.90
9497;DHT22;4786;51.270;4.456;2023-08-08T07:41:26;19.20;99.90
9497;DHT22;4786;51.270;4.456;2023-08-08T07:43:52;19.20;99.90
9497;DHT22;4786;51.270;4.456;2023-08-08T07:46:18;19.20;99.90
9497;DHT22;4786;51.270;4.456;2023-08-08T07:48:43;19.10;99.90
9497;DHT22;4786;51.270;4.456;2023-08-08T07:51:09;19.00;99.90
9497;DHT22;4786;51.270;4.456;2023-08-08T07:53:35;19.10;99.90
9497;DHT22;4786;51.270;4.456;2023-08-08T07:56:00;18.80;99.90
9497;DHT22;4786;51.270;4.456;2023-08-08T07:58:26;18.80;99.90
9497;DHT22;4786;51.270;4.456;2023-08-08T08:00:53;18.90;99.90
9497;DHT22;4786;51.270;4.456;2023-08-08T08:03:20;18.70;99.90
9497;DHT22;4786;51.270;4.456;2023-08-08T08:05:45;18.50;99.90
9497;DHT22;4786;51.270;4.456;2023-08-08T08:08:11;18.50;99.90
9497;DHT22;4786;51.270;4.456;2023-08-08T08:10:38;18.50;99.90
9497;DHT22;4786;51.270;4.456;2023-08-08T08:13:04;18.50;99.90
9497;DHT22;4786;51.270;4.456;2023-08-08T08:15:30;18.40;99.90
9497;DHT22;4786;51.270;4.456;2023-08-08T08:17:56;18.50;99.90
9497;DHT22;4786;51.270;4.456;2023-08-08T08:20:22;18.50;99.90
9497;DHT22;4786;51.270;4.456;2023-08-08T08:22:47;18.40;99.90
9497;DHT22;4786;51.270;4.456;2023-08-08T08:25:14;18.20;99.90
9497;DHT22;4786;51.270;4.456;2023-08-08T08:27:41;18.30;99.90
9497;DHT22;4786;51.270;4.456;2023-08-08T08:30:07;18.30;99.90
9497;DHT22;4786;51.270;4.456;2023-08-08T08:32:39;18.20;99.90
9497;DHT22;4786;51.270;4.456;2023-08-08T08:35:05;18.10;99.90
9497;DHT22;4786;51.270;4.456;2023-08-08T08:37:31;18.10;99.90
9497;DHT22;4786;51.270;4.456;2023-08-08T08:39:58;18.10;99.90
9497;DHT22;4786;51.270;4.456;2023-08-08T08:42:24;18.10;99.90
9497;DHT22;4786;51.270;4.456;2023-08-08T08:44:50;18.10;99.90
9497;DHT22;4786;51.270;4.456;2023-08-08T08:47:19;18.10;99.90
9497;DHT22;4786;51.270;4.456;2023-08-08T08:49:45;18.00;99.90
9497;DHT22;4786;51.270;4.456;2023-08-08T08:52:12;18.10;99.90
9497;DHT22;4786;51.270;4.456;2023-08-08T08:54:38;18.00;99.90
9497;DHT22;4786;51.270;4.456;2023-08-08T08:57:04;18.00;99.90
9497;DHT22;4786;51.270;4.456;2023-08-08T08:59:30;18.00;99.90
9497;DHT22;4786;51.270;4.456;2023-08-08T09:01:56;17.90;99.90
9497;DHT22;4786;51.270;4.456;2023-08-08T09:04:23;18.00;99.90
9497;DHT22;4786;51.270;4.456;2023-08-08T09:06:50;18.10;99.90
9497;DHT22;4786;51.270;4.456;2023-08-08T09:09:17;18.10;99.90
9497;DHT22;4786;51.270;4.456;2023-08-08T09:11:48;18.20;99.90
9497;DHT22;4786;51.270;4.456;2023-08-08T09:14:22;18.40;99.90
9497;DHT22;4786;51.270;4.456;2023-08-08T09:16:50;18.50;99.90
9497;DHT22;4786;51.270;4.456;2023-08-08T09:19:19;18.80;99.90
9497;DHT22;4786;51.270;4.456;2023-08-08T09:21:46;18.80;99.90
9497;DHT22;4786;51.270;4.456;2023-08-08T09:24:12;19.00;99.90
9497;DHT22;4786;51.270;4.456;2023-08-08T09:26:39;19.10;99.90
9497;DHT22;4786;51.270;4.456;2023-08-08T09:29:05;19.40;99.90
9497;DHT22;4786;51.270;4.456;2023-08-08T09:31:34;19.70;99.90
9497;DHT22;4786;51.270;4.456;2023-08-08T09:34:01;19.90;99.90
9497;DHT22;4786;51.270;4.456;2023-08-08T09:36:28;20.20;99.90
9497;DHT22;4786;51.270;4.456;2023-08-08T09:38:54;20.40;99.90
9497;DHT22;4786;51.270;4.456;2023-08-08T09:41:24;20.50;99.90
9497;DHT22;4786;51.270;4.456;2023-08-08T09:43:52;20.50;99.90
9497;DHT22;4786;51.270;4.456;2023-08-08T09:46:21;20.40;99.90
9497;DHT22;4786;51.270;4.456;2023-08-08T09:48:48;20.20;99.90
9497;DHT22;4786;51.270;4.456;2023-08-08T09:51:14;20.00;99.90
9497;DHT22;4786;51.270;4.456;2023-08-08T09:53:41;19.80;99.90
9497;DHT22;4786;51.270;4.456;2023-08-08T09:56:07;19.60;99.90
9497;DHT22;4786;51.270;4.456;2023-08-08T09:58:33;19.40;99.90
9497;DHT22;4786;51.270;4.456;2023-08-08T10:01:00;19.30;99.90
9497;DHT22;4786;51.270;4.456;2023-08-08T10:03:26;19.30;99.90
9497;DHT22;4786;51.270;4.456;2023-08-08T10:05:53;19.30;99.90
9497;DHT22;4786;51.270;4.456;2023-08-08T10:08:20;19.30;99.90
9497;DHT22;4786;51.270;4.456;2023-08-08T10:10:47;19.30;99.90
9497;DHT22;4786;51.270;4.456;2023-08-08T10:13:25;19.50;99.90
9497;DHT22;4786;51.270;4.456;2023-08-08T10:15:51;19.80;99.90
9497;DHT22;4786;51.270;4.456;2023-08-08T10:18:20;19.80;99.90
9497;DHT22;4786;51.270;4.456;2023-08-08T10:20:48;19.70;99.90
9497;DHT22;4786;51.270;4.456;2023-08-08T10:23:18;19.60;99.90
9497;DHT22;4786;51.270;4.456;2023-08-08T10:25:46;19.50;99.90
9497;DHT22;4786;51.270;4.456;2023-08-08T10:28:14;19.40;99.90
9497;DHT22;4786;51.270;4.456;2023-08-08T10:30:54;19.40;99.90
9497;DHT22;4786;51.270;4.456;2023-08-08T10:38:26;19.30;99.90
9497;DHT22;4786;51.270;4.456;2023-08-08T10:41:02;19.50;99.90
9497;DHT22;4786;51.270;4.456;2023-08-08T10:43:29;19.90;99.90
9497;DHT22;4786;51.270;4.456;2023-08-08T10:46:02;20.50;99.90
9497;DHT22;4786;51.270;4.456;2023-08-08T10:48:29;20.80;99.90
9497;DHT22;4786;51.270;4.456;2023-08-08T10:50:59;21.10;99.90
9497;DHT22;4786;51.270;4.456;2023-08-08T10:53:26;21.40;99.90
9497;DHT22;4786;51.270;4.456;2023-08-08T10:56:00;21.50;99.90
9497;DHT22;4786;51.270;4.456;2023-08-08T10:58:37;21.80;99.90
9497;DHT22;4786;51.270;4.456;2023-08-08T11:01:04;22.10;99.90
9497;DHT22;4786;51.270;4.456;2023-08-08T11:03:38;22.20;99.90
9497;DHT22;4786;51.270;4.456;2023-08-08T11:06:08;22.40;99.90
9497;DHT22;4786;51.270;4.456;2023-08-08T11:08:35;22.50;99.90
9497;DHT22;4786;51.270;4.456;2023-08-08T11:11:04;22.40;99.90
9497;DHT22;4786;51.270;4.456;2023-08-08T11:13:29;22.20;99.90
9497;DHT22;4786;51.270;4.456;2023-08-08T11:15:55;21.90;99.90
9497;DHT22;4786;51.270;4.456;2023-08-08T11:18:21;21.30;99.90
9497;DHT22;4786;51.270;4.456;2023-08-08T11:20:49;21.20;99.90
9497;DHT22;4786;51.270;4.456;2023-08-08T11:23:15;21.10;99.90
9497;DHT22;4786;51.270;4.456;2023-08-08T11:25:42;20.90;99.90
9497;DHT22;4786;51.270;4.456;2023-08-08T11:28:09;20.80;99.90
9497;DHT22;4786;51.270;4.456;2023-08-08T11:30:38;20.90;99.90
9497;DHT22;4786;51.270;4.456;2023-08-08T11:33:06;21.20;99.90
9497;DHT22;4786;51.270;4.456;2023-08-08T11:35:32;21.40;99.90
9497;DHT22;4786;51.270;4.456;2023-08-08T11:38:00;21.50;99.90
9497;DHT22;4786;51.270;4.456;2023-08-08T11:40:28;21.90;99.90
9497;DHT22;4786;51.270;4.456;2023-08-08T11:42:55;22.10;99.90
9497;DHT22;4786;51.270;4.456;2023-08-08T11:45:42;22.20;99.90
9497;DHT22;4786;51.270;4.456;2023-08-08T11:48:08;22.40;99.90
9497;DHT22;4786;51.270;4.456;2023-08-08T11:50:36;22.50;99.90
9497;DHT22;4786;51.270;4.456;2023-08-08T11:53:03;22.70;99.90
9497;DHT22;4786;51.270;4.456;2023-08-08T11:55:30;23.00;99.90
9497;DHT22;4786;51.270;4.456;2023-08-08T11:57:57;23.00;99.90
9497;DHT22;4786;51.270;4.456;2023-08-08T12:00:27;23.00;99.90
9497;DHT22;4786;51.270;4.456;2023-08-08T12:02:55;23.10;99.90
9497;DHT22;4786;51.270;4.456;2023-08-08T12:05:22;23.20;99.90
9497;DHT22;4786;51.270;4.456;2023-08-08T12:07:48;23.10;99.90
9497;DHT22;4786;51.270;4.456;2023-08-08T12:10:19;22.80;99.90
9497;DHT22;4786;51.270;4.456;2023-08-08T12:12:51;22.60;99.90
9497;DHT22;4786;51.270;4.456;2023-08-08T12:15:19;22.40;99.90
9497;DHT22;4786;51.270;4.456;2023-08-08T12:17:46;22.50;99.90
9497;DHT22;4786;51.270;4.456;2023-08-08T12:20:11;22.00;99.90
9497;DHT22;4786;51.270;4.456;2023-08-08T12:22:38;22.00;99.90
9497;DHT22;4786;51.270;4.456;2023-08-08T12:25:04;21.80;99.90
9497;DHT22;4786;51.270;4.456;2023-08-08T12:27:31;21.60;99.90
9497;DHT22;4786;51.270;4.456;2023-08-08T12:29:57;21.60;99.90
9497;DHT22;4786;51.270;4.456;2023-08-08T12:32:25;21.80;99.90
9497;DHT22;4786;51.270;4.456;2023-08-08T12:34:52;22.10;99.90
9497;DHT22;4786;51.270;4.456;2023-08-08T12:37:17;21.90;99.90
9497;DHT22;4786;51.270;4.456;2023-08-08T12:39:44;21.90;99.90
9497;DHT22;4786;51.270;4.456;2023-08-08T12:42:09;21.70;99.90
9497;DHT22;4786;51.270;4.456;2023-08-08T12:44:35;21.70;99.90
9497;DHT22;4786;51.270;4.456;2023-08-08T12:47:01;21.60;99.90
9497;DHT22;4786;51.270;4.456;2023-08-08T12:49:27;21.50;99.90
9497;DHT22;4786;51.270;4.456;2023-08-08T12:51:53;21.50;99.90
9497;DHT22;4786;51.270;4.456;2023-08-08T12:54:21;21.40;99.90
9497;DHT22;4786;51.270;4.456;2023-08-08T12:56:47;21.40;99.90
9497;DHT22;4786;51.270;4.456;2023-08-08T12:59:13;21.40;99.90
9497;DHT22;4786;51.270;4.456;2023-08-08T13:01:39;21.30;99.90
9497;DHT22;4786;51.270;4.456;2023-08-08T13:04:05;21.40;99.90
9497;DHT22;4786;51.270;4.456;2023-08-08T13:06:32;21.40;99.90
9497;DHT22;4786;51.270;4.456;2023-08-08T13:08:58;21.60;99.90
9497;DHT22;4786;51.270;4.456;2023-08-08T13:11:26;21.70;99.90
9497;DHT22;4786;51.270;4.456;2023-08-08T13:13:51;21.70;99.90
9497;DHT22;4786;51.270;4.456;2023-08-08T13:16:17;21.70;99.90
9497;DHT22;4786;51.270;4.456;2023-08-08T13:18:43;21.50;99.90
9497;DHT22;4786;51.270;4.456;2023-08-08T13:21:10;21.60;99.90
9497;DHT22;4786;51.270;4.456;2023-08-08T13:23:36;21.60;99.90
9497;DHT22;4786;51.270;4.456;2023-08-08T13:26:02;21.60;99.90
9497;DHT22;4786;51.270;4.456;2023-08-08T13:28:29;21.70;99.90
9497;DHT22;4786;51.270;4.456;2023-08-08T13:30:55;21.60;99.90
9497;DHT22;4786;51.270;4.456;2023-08-08T13:33:21;21.50;99.90
9497;DHT22;4786;51.270;4.456;2023-08-08T13:35:47;21.40;99.90
9497;DHT22;4786;51.270;4.456;2023-08-08T13:38:12;21.40;99.90
9497;DHT22;4786;51.270;4.456;2023-08-08T13:40:43;21.30;99.90
9497;DHT22;4786;51.270;4.456;2023-08-08T13:43:09;21.20;99.90
9497;DHT22;4786;51.270;4.456;2023-08-08T13:45:35;21.00;99.90
9497;DHT22;4786;51.270;4.456;2023-08-08T13:48:02;21.00;99.90
9497;DHT22;4786;51.270;4.456;2023-08-08T13:50:27;21.00;99.90
9497;DHT22;4786;51.270;4.456;2023-08-08T13:52:54;21.00;99.90
9497;DHT22;4786;51.270;4.456;2023-08-08T13:55:21;21.10;99.90
9497;DHT22;4786;51.270;4.456;2023-08-08T13:57:47;21.10;99.90
9497;DHT22;4786;51.270;4.456;2023-08-08T14:00:13;21.10;99.90
9497;DHT22;4786;51.270;4.456;2023-08-08T14:02:40;21.10;99.90
9497;DHT22;4786;51.270;4.456;2023-08-08T14:05:07;21.20;99.90
9497;DHT22;4786;51.270;4.456;2023-08-08T14:07:34;21.20;99.90
9497;DHT22;4786;51.270;4.456;2023-08-08T14:10:01;21.10;99.90
9497;DHT22;4786;51.270;4.456;2023-08-08T14:12:27;21.20;99.90
9497;DHT22;4786;51.270;4.456;2023-08-08T14:14:53;21.30;99.90
9497;DHT22;4786;51.270;4.456;2023-08-08T14:17:19;21.40;99.90
9497;DHT22;4786;51.270;4.456;2023-08-08T14:19:44;21.30;99.90
9497;DHT22;4786;51.270;4.456;2023-08-08T14:22:10;21.30;99.90
9497;DHT22;4786;51.270;4.456;2023-08-08T14:24:37;21.30;99.90
9497;DHT22;4786;51.270;4.456;2023-08-08T14:27:02;21.30;99.90
9497;DHT22;4786;51.270;4.456;2023-08-08T14:29:28;21.30;99.90
9497;DHT22;4786;51.270;4.456;2023-08-08T14:31:54;21.30;99.90
9497;DHT22;4786;51.270;4.456;2023-08-08T14:34:28;21.40;99.90
9497;DHT22;4786;51.270;4.456;2023-08-08T14:36:54;21.40;99.90
9497;DHT22;4786;51.270;4.456;2023-08-08T14:39:19;21.40;99.90
9497;DHT22;4786;51.270;4.456;2023-08-08T14:41:45;21.40;99.90
9497;DHT22;4786;51.270;4.456;2023-08-08T14:44:11;21.20;99.90
9497;DHT22;4786;51.270;4.456;2023-08-08T14:46:37;21.50;99.90
9497;DHT22;4786;51.270;4.456;2023-08-08T14:49:03;21.40;99.90
9497;DHT22;4786;51.270;4.456;2023-08-08T14:51:31;21.40;99.90
9497;DHT22;4786;51.270;4.456;2023-08-08T14:53:57;21.30;99.90
9497;DHT22;4786;51.270;4.456;2023-08-08T14:56:22;21.20;99.90
9497;DHT22;4786;51.270;4.456;2023-08-08T14:58:48;21.20;99.90
9497;DHT22;4786;51.270;4.456;2023-08-08T15:01:15;21.10;99.90
9497;DHT22;4786;51.270;4.456;2023-08-08T15:03:41;21.00;99.90
9497;DHT22;4786;51.270;4.456;2023-08-08T15:06:08;20.90;99.90
9497;DHT22;4786;51.270;4.456;2023-08-08T15:08:34;20.80;99.90
9497;DHT22;4786;51.270;4.456;2023-08-08T15:11:00;20.70;99.90
9497;DHT22;4786;51.270;4.456;2023-08-08T15:13:26;20.50;99.90
9497;DHT22;4786;51.270;4.456;2023-08-08T15:15:52;20.50;99.90
9497;DHT22;4786;51.270;4.456;2023-08-08T15:18:18;20.40;99.90
9497;DHT22;4786;51.270;4.456;2023-08-08T15:20:44;20.40;99.90
9497;DHT22;4786;51.270;4.456;2023-08-08T15:23:10;20.50;99.90
9497;DHT22;4786;51.270;4.456;2023-08-08T15:25:37;20.40;99.90
9497;DHT22;4786;51.270;4.456;2023-08-08T15:28:03;20.40;99.90
9497;DHT22;4786;51.270;4.456;2023-08-08T15:30:30;20.40;99.90
9497;DHT22;4786;51.270;4.456;2023-08-08T15:32:56;20.40;99.90
9497;DHT22;4786;51.270;4.456;2023-08-08T15:35:21;20.30;99.90
9497;DHT22;4786;51.270;4.456;2023-08-08T15:37:47;20.30;99.90
9497;DHT22;4786;51.270;4.456;2023-08-08T15:40:13;20.30;99.90
9497;DHT22;4786;51.270;4.456;2023-08-08T15:42:39;20.10;99.90
9497;DHT22;4786;51.270;4.456;2023-08-08T15:45:09;20.00;99.90
9497;DHT22;4786;51.270;4.456;2023-08-08T15:47:36;20.00;99.90
9497;DHT22;4786;51.270;4.456;2023-08-08T15:50:02;19.90;99.90
9497;DHT22;4786;51.270;4.456;2023-08-08T15:52:29;19.70;99.90
9497;DHT22;4786;51.270;4.456;2023-08-08T15:54:55;19.60;99.90
9497;DHT22;4786;51.270;4.456;2023-08-08T15:57:21;19.40;99.90
9497;DHT22;4786;51.270;4.456;2023-08-08T15:59:47;19.50;99.90
9497;DHT22;4786;51.270;4.456;2023-08-08T16:02:13;19.40;99.90
9497;DHT22;4786;51.270;4.456;2023-08-08T16:04:39;19.40;99.90